createdAt,value
2018-06-29T00:00:22.013Z,56.05
2018-06-29T00:02:51.716Z,56.67
2018-06-29T00:05:21.495Z,56.87
2018-06-29T00:07:51.006Z,56.87
2018-06-29T00:10:21.756Z,56.77
2018-06-29T00:12:51.787Z,57.50
2018-06-29T00:15:22.059Z,57.03
2018-06-29T00:17:51.711Z,57.00
2018-06-29T00:20:21.804Z,57.19
2018-06-29T00:22:51.417Z,56.58
2018-06-29T00:25:21.103Z,56.89
2018-06-29T00:27:50.512Z,57.00
2018-06-29T00:30:21.590Z,56.77
2018-06-29T00:32:51.450Z,57.24
2018-06-29T00:35:20.769Z,57.56
2018-06-29T00:37:50.270Z,57.52
2018-06-29T00:40:20.192Z,57.38
2018-06-29T00:42:49.798Z,57.73
2018-06-29T00:45:19.659Z,57.85
2018-06-29T00:47:49.716Z,57.57
2018-06-29T00:50:19.215Z,57.84
2018-06-29T00:52:48.763Z,57.96
2018-06-29T00:55:18.243Z,58.39
2018-06-29T00:57:47.838Z,58.28
2018-06-29T01:00:17.313Z,58.32
2018-06-29T01:02:47.195Z,58.68
2018-06-29T01:05:16.520Z,58.68
2018-06-29T01:07:46.348Z,59.11
2018-06-29T01:10:15.816Z,58.99
2018-06-29T01:12:45.269Z,59.44
2018-06-29T01:15:14.673Z,59.72
2018-06-29T01:17:44.707Z,59.70
2018-06-29T01:20:14.925Z,60.03
2018-06-29T01:22:44.620Z,60.17
2018-06-29T01:25:13.910Z,60.50
2018-06-29T01:27:43.440Z,60.81
2018-06-29T01:30:13.178Z,61.41
2018-06-29T01:32:42.775Z,61.79
2018-06-29T01:35:12.771Z,61.91
2018-06-29T01:37:42.455Z,61.82
2018-06-29T01:40:12.195Z,62.19
2018-06-29T01:42:42.176Z,62.65
2018-06-29T01:45:11.956Z,62.19
2018-06-29T01:47:42.235Z,61.78
2018-06-29T01:50:13.398Z,62.31
2018-06-29T01:52:42.930Z,62.39
2018-06-29T01:55:12.223Z,62.69
2018-06-29T01:57:41.752Z,62.90
2018-06-29T02:00:11.511Z,62.87
2018-06-29T02:02:41.435Z,63.30
2018-06-29T02:05:11.256Z,62.97
2018-06-29T02:07:40.659Z,62.72
2018-06-29T02:10:10.673Z,63.32
2018-06-29T02:12:40.059Z,63.39
2018-06-29T02:15:09.681Z,63.23
2018-06-29T02:17:39.230Z,62.85
2018-06-29T02:20:09.921Z,63.11
2018-06-29T02:22:39.757Z,63.05
2018-06-29T02:25:09.178Z,63.62
2018-06-29T02:27:39.232Z,63.45
2018-06-29T02:30:09.033Z,63.67
2018-06-29T02:32:38.833Z,63.78
2018-06-29T02:35:08.937Z,63.97
2018-06-29T02:37:38.591Z,63.98
2018-06-29T02:40:08.215Z,64.59
2018-06-29T02:42:38.422Z,64.44
2018-06-29T02:45:07.787Z,64.02
2018-06-29T02:47:37.255Z,63.83
2018-06-29T02:50:07.424Z,64.09
2018-06-29T02:52:36.977Z,64.71
2018-06-29T02:55:06.575Z,64.96
2018-06-29T02:57:36.356Z,64.95
2018-06-29T03:00:06.640Z,64.95
2018-06-29T03:02:36.384Z,64.95
2018-06-29T03:05:05.739Z,64.77
2018-06-29T03:07:35.037Z,65.86
2018-06-29T03:10:04.905Z,64.97
2018-06-29T03:12:34.689Z,65.18
2018-06-29T03:15:04.263Z,65.40
2018-06-29T03:17:33.666Z,65.32
2018-06-29T03:20:03.542Z,65.51
2018-06-29T03:22:33.233Z,65.15
2018-06-29T03:25:03.262Z,65.09
2018-06-29T03:27:32.906Z,66.12
2018-06-29T03:30:02.535Z,65.69
2018-06-29T03:32:32.165Z,66.00
2018-06-29T03:35:01.716Z,66.04
2018-06-29T03:37:31.315Z,66.19
2018-06-29T03:40:00.979Z,66.23
2018-06-29T03:42:30.557Z,66.30
2018-06-29T03:45:00.279Z,66.47
2018-06-29T03:47:29.821Z,66.48
2018-06-29T03:49:59.680Z,66.30
2018-06-29T03:52:29.378Z,67.00
2018-06-29T03:54:58.681Z,67.48
2018-06-29T03:57:28.192Z,67.61
2018-06-29T03:59:58.250Z,66.86
2018-06-29T04:02:28.343Z,66.88
2018-06-29T04:04:58.145Z,67.53
2018-06-29T04:07:29.339Z,67.23
2018-06-29T04:09:58.973Z,67.18
2018-06-29T04:12:28.417Z,67.25
2018-06-29T04:14:57.749Z,67.47
2018-06-29T04:17:27.363Z,67.57
2018-06-29T04:19:57.050Z,67.16
2018-06-29T04:22:26.463Z,66.96
2018-06-29T04:25:00.415Z,67.40
2018-06-29T04:27:29.956Z,67.21
2018-06-29T04:29:59.745Z,67.14
2018-06-29T04:32:29.208Z,67.13
2018-06-29T04:34:58.505Z,67.30
2018-06-29T04:37:28.219Z,67.36
2018-06-29T04:39:58.286Z,67.26
2018-06-29T04:42:28.808Z,66.75
2018-06-29T04:44:58.266Z,66.42
2018-06-29T04:47:28.629Z,66.49
2018-06-29T04:49:58.502Z,66.95
2018-06-29T04:52:28.871Z,67.07
2018-06-29T04:54:58.596Z,66.79
2018-06-29T04:57:32.296Z,66.80
2018-06-29T05:00:01.990Z,66.65
2018-06-29T05:02:31.359Z,66.75
2018-06-29T05:05:00.826Z,66.21
2018-06-29T05:07:30.468Z,66.40
2018-06-29T05:09:59.816Z,66.76
2018-06-29T05:12:29.500Z,66.55
2018-06-29T05:14:59.561Z,66.31
2018-06-29T05:17:29.188Z,66.41
2018-06-29T05:19:58.564Z,66.05
2018-06-29T05:22:28.163Z,66.36
2018-06-29T05:24:58.062Z,66.38
2018-06-29T05:27:28.007Z,65.86
2018-06-29T05:29:57.715Z,65.75
2018-06-29T05:32:27.077Z,65.90
2018-06-29T05:34:56.671Z,65.74
2018-06-29T05:37:26.241Z,65.54
2018-06-29T05:39:55.969Z,65.32
2018-06-29T05:42:25.472Z,65.38
2018-06-29T05:44:55.065Z,65.18
2018-06-29T05:47:25.826Z,64.91
2018-06-29T05:49:55.436Z,64.66
2018-06-29T05:52:25.149Z,64.92
2018-06-29T05:54:54.827Z,64.68
2018-06-29T05:57:28.423Z,64.24
2018-06-29T05:59:57.986Z,64.16
2018-06-29T06:02:27.436Z,64.06
2018-06-29T06:04:57.099Z,64.04
2018-06-29T06:07:26.382Z,63.82
2018-06-29T06:09:56.458Z,63.87
2018-06-29T06:12:25.835Z,63.55
2018-06-29T06:14:55.321Z,63.96
2018-06-29T06:17:24.695Z,63.94
2018-06-29T06:20:04.393Z,63.57
2018-06-29T06:22:34.149Z,64.04
2018-06-29T06:25:03.957Z,64.09
2018-06-29T06:27:33.551Z,63.88
2018-06-29T06:30:03.170Z,63.16
2018-06-29T06:32:33.166Z,63.09
2018-06-29T06:35:03.063Z,62.80
2018-06-29T06:37:32.576Z,62.62
2018-06-29T06:40:01.939Z,62.63
2018-06-29T06:42:31.312Z,62.20
2018-06-29T06:45:01.095Z,61.92
2018-06-29T06:47:31.182Z,61.48
2018-06-29T06:50:00.978Z,61.26
2018-06-29T06:52:30.848Z,60.94
2018-06-29T06:55:00.267Z,60.37
2018-06-29T06:57:29.608Z,60.47
2018-06-29T06:59:59.363Z,59.78
2018-06-29T07:02:28.802Z,59.94
2018-06-29T07:04:58.588Z,60.22
2018-06-29T07:07:27.919Z,59.63
2018-06-29T07:09:57.577Z,60.05
2018-06-29T07:12:26.901Z,59.90
2018-06-29T07:14:56.520Z,59.29
2018-06-29T07:17:25.839Z,59.81
2018-06-29T07:19:55.875Z,58.28
2018-06-29T07:22:25.719Z,57.01
2018-06-29T07:24:55.567Z,57.60
2018-06-29T07:27:25.326Z,57.05
2018-06-29T07:29:55.410Z,56.37
2018-06-29T07:32:25.250Z,56.20
2018-06-29T07:34:54.715Z,55.40
2018-06-29T07:37:24.015Z,55.57
2018-06-29T07:39:53.833Z,54.86
2018-06-29T07:42:23.507Z,55.42
2018-06-29T07:44:53.045Z,55.12
2018-06-29T07:47:26.977Z,54.14
2018-06-29T07:49:56.856Z,53.65
2018-06-29T07:52:26.310Z,53.36
2018-06-29T07:54:55.713Z,53.64
2018-06-29T07:57:25.479Z,53.42
2018-06-29T07:59:55.446Z,52.70
2018-06-29T08:02:25.077Z,52.43
2018-06-29T08:04:54.985Z,52.82
2018-06-29T08:07:25.134Z,52.71
2018-06-29T08:09:54.882Z,52.52
2018-06-29T08:12:24.753Z,52.12
2018-06-29T08:14:54.010Z,52.10
2018-06-29T08:17:23.364Z,52.67
2018-06-29T08:19:52.866Z,50.41
2018-06-29T08:22:22.344Z,51.61
2018-06-29T08:25:02.669Z,51.11
2018-06-29T08:27:32.356Z,51.56
2018-06-29T08:30:01.815Z,51.27
2018-06-29T08:32:31.219Z,51.02
2018-06-29T08:35:00.609Z,51.17
2018-06-29T08:37:30.543Z,51.50
2018-06-29T08:39:59.975Z,50.92
2018-06-29T08:42:29.760Z,51.18
2018-06-29T08:44:59.253Z,50.91
2018-06-29T08:47:28.612Z,50.82
2018-06-29T08:49:58.239Z,50.30
2018-06-29T08:52:27.914Z,49.63
2018-06-29T08:54:57.832Z,49.31
2018-06-29T08:57:27.929Z,49.68
2018-06-29T08:59:57.840Z,50.24
2018-06-29T09:02:27.161Z,49.20
2018-06-29T09:04:56.513Z,49.27
2018-06-29T09:07:26.771Z,48.74
2018-06-29T09:09:56.687Z,48.51
2018-06-29T09:12:26.096Z,49.30
2018-06-29T09:14:55.542Z,48.63
2018-06-29T09:17:25.228Z,47.67
2018-06-29T09:19:54.844Z,44.83
2018-06-29T09:22:24.472Z,43.99
2018-06-29T09:24:54.229Z,44.96
2018-06-29T09:27:23.912Z,43.75
2018-06-29T09:29:53.538Z,43.90
2018-06-29T09:32:23.267Z,42.71
2018-06-29T09:34:53.174Z,43.23
2018-06-29T09:37:22.613Z,43.31
2018-06-29T09:39:51.884Z,43.69
2018-06-29T09:42:21.203Z,44.21
2018-06-29T09:44:50.607Z,44.55
2018-06-29T09:47:20.108Z,44.45
2018-06-29T09:49:50.223Z,43.55
2018-06-29T09:52:20.084Z,43.50
2018-06-29T09:54:49.578Z,43.66
2018-06-29T09:57:19.511Z,43.49
2018-06-29T09:59:49.520Z,42.79
2018-06-29T10:02:19.108Z,43.49
2018-06-29T10:04:48.812Z,43.48
2018-06-29T10:07:21.908Z,42.59
2018-06-29T10:09:51.683Z,42.82
2018-06-29T10:12:22.215Z,41.91
2018-06-29T10:14:51.809Z,41.93
2018-06-29T10:17:21.110Z,41.76
2018-06-29T10:19:50.857Z,41.58
2018-06-29T10:22:20.520Z,41.98
2018-06-29T10:24:49.976Z,41.05
2018-06-29T10:27:19.376Z,41.30
2018-06-29T10:29:48.903Z,41.09
2018-06-29T10:32:18.777Z,40.84
2018-06-29T10:34:48.119Z,41.18
2018-06-29T10:37:17.362Z,41.07
2018-06-29T10:39:46.705Z,40.59
2018-06-29T10:42:16.251Z,40.40
2018-06-29T10:44:45.974Z,40.72
2018-06-29T10:47:16.280Z,39.64
2018-06-29T10:49:45.588Z,38.67
2018-06-29T10:52:15.506Z,39.90
2018-06-29T10:54:44.890Z,40.59
2018-06-29T10:57:14.741Z,40.48
2018-06-29T10:59:44.422Z,39.35
2018-06-29T11:02:14.142Z,39.76
2018-06-29T11:04:43.363Z,39.90
2018-06-29T11:07:13.181Z,39.82
2018-06-29T11:09:42.585Z,39.07
2018-06-29T11:12:11.858Z,39.23
2018-06-29T11:14:41.159Z,39.73
2018-06-29T11:17:10.883Z,38.98
2018-06-29T11:19:40.505Z,38.92
2018-06-29T11:22:09.975Z,39.61
2018-06-29T11:24:39.671Z,39.29
2018-06-29T11:27:09.011Z,38.78
2018-06-29T11:29:38.444Z,39.01
2018-06-29T11:32:07.732Z,38.50
2018-06-29T11:34:37.003Z,37.82
2018-06-29T11:37:06.539Z,38.19
2018-06-29T11:39:36.176Z,38.25
2018-06-29T11:42:06.289Z,38.53
2018-06-29T11:44:35.858Z,38.18
2018-06-29T11:47:05.251Z,38.36
2018-06-29T11:49:34.935Z,39.39
2018-06-29T11:52:05.077Z,37.93
2018-06-29T11:54:34.944Z,37.29
2018-06-29T11:57:04.751Z,37.50
2018-06-29T11:59:34.110Z,37.71
2018-06-29T12:02:03.482Z,38.22
2018-06-29T12:04:33.042Z,38.37
2018-06-29T12:07:02.877Z,39.21
2018-06-29T12:09:32.621Z,39.36
2018-06-29T12:12:02.128Z,39.11
2018-06-29T12:14:31.905Z,37.92
2018-06-29T12:17:02.609Z,37.83
2018-06-29T12:19:32.245Z,37.33
2018-06-29T12:22:02.033Z,36.62
2018-06-29T12:24:32.245Z,36.30
2018-06-29T12:27:01.814Z,36.74
2018-06-29T12:29:31.272Z,36.15
2018-06-29T12:32:01.522Z,35.59
2018-06-29T12:34:31.371Z,36.21
2018-06-29T12:37:01.088Z,36.08
2018-06-29T12:39:30.432Z,36.16
2018-06-29T12:42:00.303Z,36.45
2018-06-29T12:44:33.213Z,35.56
2018-06-29T12:47:03.342Z,35.29
2018-06-29T12:49:33.145Z,36.01
2018-06-29T12:52:02.449Z,35.31
2018-06-29T12:54:32.386Z,35.54
2018-06-29T12:57:02.114Z,36.11
2018-06-29T12:59:31.333Z,36.17
2018-06-29T13:02:00.949Z,35.12
2018-06-29T13:04:30.361Z,35.70
2018-06-29T13:06:59.955Z,34.25
2018-06-29T13:09:29.638Z,34.54
2018-06-29T13:11:59.292Z,34.60
2018-06-29T13:14:29.172Z,34.27
2018-06-29T13:16:58.539Z,34.36
2018-06-29T13:19:28.069Z,33.66
2018-06-29T13:21:57.680Z,33.37
2018-06-29T13:24:27.924Z,32.87
2018-06-29T13:26:57.447Z,32.61
2018-06-29T13:29:26.806Z,32.34
2018-06-29T13:31:56.243Z,32.91
2018-06-29T13:34:25.819Z,33.51
2018-06-29T13:36:55.840Z,32.99
2018-06-29T13:39:25.991Z,33.86
2018-06-29T13:41:55.769Z,34.31
2018-06-29T13:44:25.117Z,33.24
2018-06-29T13:46:54.623Z,33.13
2018-06-29T13:49:24.224Z,33.49
2018-06-29T13:51:57.306Z,33.15
2018-06-29T13:54:26.788Z,33.36
2018-06-29T13:56:56.113Z,33.67
2018-06-29T13:59:25.547Z,33.25
2018-06-29T14:01:55.015Z,33.37
2018-06-29T14:04:24.679Z,33.99
2018-06-29T14:06:59.661Z,34.29
2018-06-29T14:09:30.221Z,34.05
2018-06-29T14:11:59.734Z,33.93
2018-06-29T14:14:29.560Z,34.21
2018-06-29T14:16:58.912Z,33.87
2018-06-29T14:19:28.250Z,33.50
2018-06-29T14:21:57.663Z,33.30
2018-06-29T14:24:27.257Z,33.02
2018-06-29T14:26:56.709Z,33.27
2018-06-29T14:29:25.989Z,33.56
2018-06-29T14:31:56.131Z,33.38
2018-06-29T14:34:25.606Z,33.66
2018-06-29T14:36:59.054Z,33.65
2018-06-29T14:39:28.995Z,33.58
2018-06-29T14:42:02.068Z,33.46
2018-06-29T14:44:35.194Z,33.53
2018-06-29T14:47:05.377Z,33.08
2018-06-29T14:49:34.785Z,32.90
2018-06-29T14:52:04.093Z,32.58
2018-06-29T14:54:34.588Z,32.45
2018-06-29T14:57:03.994Z,32.80
2018-06-29T14:59:33.350Z,32.77
2018-06-29T15:02:02.969Z,33.26
2018-06-29T15:04:32.598Z,32.81
2018-06-29T15:07:02.246Z,33.36
2018-06-29T15:09:32.110Z,33.73
2018-06-29T15:12:02.126Z,34.26
2018-06-29T15:14:31.623Z,35.24
2018-06-29T15:17:01.417Z,35.05
2018-06-29T15:19:31.040Z,34.59
2018-06-29T15:22:00.316Z,34.61
2018-06-29T15:24:30.119Z,34.25
2018-06-29T15:26:59.800Z,34.18
2018-06-29T15:29:29.396Z,34.55
2018-06-29T15:31:58.853Z,34.25
2018-06-29T15:34:28.227Z,34.31
2018-06-29T15:36:57.728Z,34.15
2018-06-29T15:39:28.069Z,34.35
2018-06-29T15:41:57.383Z,34.04
2018-06-29T15:44:26.861Z,34.45
2018-06-29T15:46:56.990Z,33.65
2018-06-29T15:49:26.288Z,33.83
2018-06-29T15:51:55.833Z,33.91
2018-06-29T15:54:25.473Z,33.64
2018-06-29T15:56:55.109Z,33.97
2018-06-29T15:59:24.817Z,33.83
2018-06-29T16:01:54.298Z,33.14
2018-06-29T16:04:23.707Z,33.13
2018-06-29T16:06:53.166Z,32.96
2018-06-29T16:09:22.965Z,32.39
2018-06-29T16:11:53.243Z,32.66
2018-06-29T16:14:22.616Z,32.79
2018-06-29T16:16:51.871Z,32.47
2018-06-29T16:19:22.045Z,33.04
2018-06-29T16:21:51.771Z,33.41
2018-06-29T16:24:21.068Z,33.00
2018-06-29T16:26:51.191Z,33.31
2018-06-29T16:29:21.563Z,32.67
2018-06-29T16:31:50.872Z,32.79
2018-06-29T16:34:20.748Z,32.45
2018-06-29T16:36:50.087Z,32.86
2018-06-29T16:39:19.839Z,32.73
2018-06-29T16:41:49.286Z,32.50
2018-06-29T16:44:18.870Z,32.64
2018-06-29T16:46:48.467Z,33.13
2018-06-29T16:49:18.177Z,33.60
2018-06-29T16:51:47.490Z,33.99
2018-06-29T16:54:16.754Z,33.60
2018-06-29T16:56:46.180Z,33.42
2018-06-29T16:59:15.872Z,33.77
2018-06-29T17:01:45.155Z,33.00
2018-06-29T17:04:14.867Z,33.18
2018-06-29T17:06:44.588Z,34.05
2018-06-29T17:09:14.063Z,34.10
2018-06-29T17:11:43.590Z,33.93
2018-06-29T17:14:13.257Z,33.82
2018-06-29T17:16:42.625Z,33.27
2018-06-29T17:19:12.477Z,33.49
2018-06-29T17:21:42.598Z,33.67
2018-06-29T17:24:12.115Z,33.96
2018-06-29T17:26:41.396Z,34.35
2018-06-29T17:29:11.379Z,34.27
2018-06-29T17:31:41.306Z,34.56
2018-06-29T17:34:11.160Z,34.93
2018-06-29T17:36:40.739Z,34.80
2018-06-29T17:39:11.587Z,34.65
2018-06-29T17:41:44.284Z,35.36
2018-06-29T17:44:13.890Z,35.00
2018-06-29T17:46:43.246Z,35.24
2018-06-29T17:49:13.137Z,35.31
2018-06-29T17:51:42.622Z,35.66
2018-06-29T17:54:12.371Z,35.81
2018-06-29T17:56:42.494Z,36.29
2018-06-29T17:59:11.795Z,36.52
2018-06-29T18:01:41.492Z,36.49
2018-06-29T18:04:11.202Z,36.43
2018-06-29T18:06:40.644Z,36.38
2018-06-29T18:09:11.203Z,36.42
2018-06-29T18:11:40.840Z,36.38
2018-06-29T18:14:10.269Z,37.08
2018-06-29T18:16:39.822Z,36.99
2018-06-29T18:19:09.625Z,37.71
2018-06-29T18:21:39.253Z,37.80
2018-06-29T18:24:09.421Z,37.40
2018-06-29T18:26:39.457Z,37.18
2018-06-29T18:29:09.319Z,37.44
2018-06-29T18:31:39.453Z,38.00
2018-06-29T18:34:09.199Z,38.11
2018-06-29T18:36:39.668Z,38.55
2018-06-29T18:39:10.327Z,39.13
2018-06-29T18:41:39.657Z,39.12
2018-06-29T18:44:09.020Z,39.19
2018-06-29T18:46:38.338Z,39.59
2018-06-29T18:49:08.749Z,40.18
2018-06-29T18:51:38.750Z,40.80
2018-06-29T18:54:08.943Z,42.83
2018-06-29T18:56:38.703Z,43.65
2018-06-29T18:59:08.717Z,44.23
2018-06-29T19:01:38.501Z,44.69
2018-06-29T19:04:08.047Z,45.14
2018-06-29T19:06:37.529Z,46.32
2018-06-29T19:09:09.570Z,46.91
2018-06-29T19:11:39.717Z,46.97
2018-06-29T19:14:09.291Z,47.00
2018-06-29T19:16:38.956Z,47.82
2018-06-29T19:19:08.940Z,47.86
2018-06-29T19:21:38.819Z,47.97
2018-06-29T19:24:08.627Z,48.24
2018-06-29T19:26:38.127Z,48.37
2018-06-29T19:29:13.349Z,49.12
2018-06-29T19:31:42.635Z,48.88
2018-06-29T19:34:12.655Z,49.41
2018-06-29T19:36:42.478Z,49.58
2018-06-29T19:39:12.787Z,49.40
2018-06-29T19:41:42.654Z,49.37
2018-06-29T19:44:12.627Z,49.79
2018-06-29T19:46:42.456Z,50.04
2018-06-29T19:49:11.790Z,50.17
2018-06-29T19:51:41.112Z,50.49
2018-06-29T19:54:10.458Z,50.38
2018-06-29T19:56:40.035Z,50.96
2018-06-29T19:59:12.633Z,51.21
2018-06-29T20:01:42.061Z,51.22
2018-06-29T20:04:13.456Z,51.59
2018-06-29T20:06:43.053Z,51.94
2018-06-29T20:09:13.855Z,51.76
2018-06-29T20:11:46.574Z,51.95
2018-06-29T20:14:17.256Z,52.05
2018-06-29T20:16:47.165Z,52.10
2018-06-29T20:19:16.690Z,52.23
2018-06-29T20:21:49.872Z,52.29
2018-06-29T20:24:19.589Z,51.87
2018-06-29T20:26:49.418Z,52.65
2018-06-29T20:29:19.321Z,52.35
2018-06-29T20:31:49.082Z,52.20
2018-06-29T20:34:18.734Z,52.45
2018-06-29T20:36:49.155Z,52.02
2018-06-29T20:39:18.797Z,52.12
2018-06-29T20:41:48.666Z,52.48
2018-06-29T20:44:18.551Z,52.42
2018-06-29T20:46:48.294Z,52.27
2018-06-29T20:49:18.026Z,52.76
2018-06-29T20:51:47.715Z,52.86
2018-06-29T20:54:18.060Z,53.05
2018-06-29T20:56:51.624Z,52.81
2018-06-29T20:59:21.201Z,53.08
2018-06-29T21:01:50.940Z,53.47
2018-06-29T21:04:20.794Z,53.40
2018-06-29T21:06:55.702Z,53.37
2018-06-29T21:09:25.570Z,53.70
2018-06-29T21:11:54.975Z,53.56
2018-06-29T21:14:24.334Z,53.93
2018-06-29T21:16:57.290Z,54.04
2018-06-29T21:19:27.037Z,54.01
2018-06-29T21:22:00.051Z,54.02
2018-06-29T21:24:29.770Z,54.61
2018-06-29T21:26:59.193Z,54.68
2018-06-29T21:29:28.668Z,54.87
2018-06-29T21:31:58.459Z,55.18
2018-06-29T21:34:27.992Z,55.29
2018-06-29T21:36:57.900Z,55.32
2018-06-29T21:39:27.221Z,55.60
2018-06-29T21:41:56.740Z,55.85
2018-06-29T21:44:26.167Z,55.93
2018-06-29T21:46:55.717Z,56.38
2018-06-29T21:49:25.928Z,56.23
2018-06-29T21:51:55.679Z,56.25
2018-06-29T21:54:25.116Z,56.41
2018-06-29T21:56:54.949Z,56.53
2018-06-29T21:59:24.514Z,56.52
2018-06-29T22:01:54.333Z,56.87
2018-06-29T22:04:23.806Z,56.87
2018-06-29T22:06:53.084Z,56.85
2018-06-29T22:09:23.029Z,57.04
2018-06-29T22:11:53.075Z,57.35
2018-06-29T22:14:22.673Z,57.50
2018-06-29T22:16:52.005Z,57.39
2018-06-29T22:19:21.552Z,57.80
2018-06-29T22:21:51.358Z,57.62
2018-06-29T22:24:21.314Z,57.87
2018-06-29T22:26:51.045Z,57.83
2018-06-29T22:29:20.833Z,57.80
2018-06-29T22:31:50.161Z,57.67
2018-06-29T22:34:23.418Z,57.96
2018-06-29T22:36:52.822Z,58.13
2018-06-29T22:39:22.531Z,58.36
2018-06-29T22:41:51.837Z,58.42
2018-06-29T22:44:21.600Z,58.38
2018-06-29T22:46:51.345Z,58.59
2018-06-29T22:49:21.553Z,58.84
2018-06-29T22:51:51.114Z,58.62
2018-06-29T22:54:21.316Z,58.68
2018-06-29T22:56:51.273Z,58.71
2018-06-29T22:59:21.187Z,59.05
2018-06-29T23:01:51.146Z,59.42
2018-06-29T23:04:20.473Z,59.60
2018-06-29T23:06:50.183Z,59.73
2018-06-29T23:09:20.017Z,59.67
2018-06-29T23:11:49.698Z,60.01
2018-06-29T23:14:18.983Z,60.42
2018-06-29T23:16:48.954Z,60.61
2018-06-29T23:19:18.338Z,60.96
2018-06-29T23:21:47.963Z,61.26
2018-06-29T23:24:18.252Z,61.92
2018-06-29T23:26:47.965Z,61.91
2018-06-29T23:29:17.408Z,61.86
2018-06-29T23:31:47.489Z,62.63
2018-06-29T23:34:16.952Z,62.97
2018-06-29T23:36:46.296Z,63.10
2018-06-29T23:39:16.149Z,63.39
2018-06-29T23:41:46.041Z,63.32
2018-06-29T23:44:15.470Z,64.04
2018-06-29T23:46:45.416Z,64.38
2018-06-29T23:49:15.137Z,64.19
2018-06-29T23:51:44.672Z,64.06
2018-06-29T23:54:14.475Z,64.24
2018-06-29T23:56:44.079Z,64.65
2018-06-29T23:59:13.483Z,64.90
